sensor_id;sensor_type;location;lat;lon;timestamp;P1;durP1;ratioP1;P2;durP2;ratioP2
19414;SDS011;9843;48.882;12.592;2023-09-19T00:00:30;10.60;;;6.07;;
19414;SDS011;9843;48.882;12.592;2023-09-19T00:02:58;8.33;;;6.77;;
19414;SDS011;9843;48.882;12.592;2023-09-19T00:05:27;8.37;;;5.40;;
19414;SDS011;9843;48.882;12.592;2023-09-19T00:07:55;9.03;;;5.70;;
19414;SDS011;9843;48.882;12.592;2023-09-19T00:10:23;10.67;;;5.87;;
19414;SDS011;9843;48.882;12.592;2023-09-19T00:12:51;7.47;;;5.83;;
19414;SDS011;9843;48.882;12.592;2023-09-19T00:15:20;11.30;;;7.20;;
19414;SDS011;9843;48.882;12.592;2023-09-19T00:17:47;5.23;;;4.73;;
19414;SDS011;9843;48.882;12.592;2023-09-19T00:20:17;16.17;;;6.93;;
19414;SDS011;9843;48.882;12.592;2023-09-19T00:22:45;8.90;;;6.23;;
19414;SDS011;9843;48.882;12.592;2023-09-19T00:25:13;9.20;;;5.43;;
19414;SDS011;9843;48.882;12.592;2023-09-19T00:27:40;12.43;;;6.00;;
19414;SDS011;9843;48.882;12.592;2023-09-19T00:30:08;15.90;;;6.23;;
19414;SDS011;9843;48.882;12.592;2023-09-19T00:32:39;6.93;;;5.23;;
19414;SDS011;9843;48.882;12.592;2023-09-19T00:35:07;6.80;;;6.07;;
19414;SDS011;9843;48.882;12.592;2023-09-19T00:37:35;10.60;;;6.83;;
19414;SDS011;9843;48.882;12.592;2023-09-19T00:40:04;6.87;;;5.87;;
19414;SDS011;9843;48.882;12.592;2023-09-19T00:42:34;11.87;;;6.73;;
19414;SDS011;9843;48.882;12.592;2023-09-19T00:45:03;10.27;;;7.13;;
19414;SDS011;9843;48.882;12.592;2023-09-19T00:47:31;12.77;;;5.90;;
19414;SDS011;9843;48.882;12.592;2023-09-19T00:49:58;9.13;;;6.30;;
19414;SDS011;9843;48.882;12.592;2023-09-19T00:52:25;7.00;;;6.00;;
19414;SDS011;9843;48.882;12.592;2023-09-19T00:54:53;10.93;;;6.00;;
19414;SDS011;9843;48.882;12.592;2023-09-19T00:57:23;10.30;;;5.63;;
19414;SDS011;9843;48.882;12.592;2023-09-19T00:59:50;11.50;;;7.10;;
19414;SDS011;9843;48.882;12.592;2023-09-19T01:02:19;8.37;;;5.33;;
19414;SDS011;9843;48.882;12.592;2023-09-19T01:04:47;6.50;;;5.47;;
19414;SDS011;9843;48.882;12.592;2023-09-19T01:07:14;6.27;;;4.67;;
19414;SDS011;9843;48.882;12.592;2023-09-19T01:09:41;4.50;;;4.10;;
19414;SDS011;9843;48.882;12.592;2023-09-19T01:12:09;6.43;;;4.03;;
19414;SDS011;9843;48.882;12.592;2023-09-19T01:14:40;5.63;;;5.03;;
19414;SDS011;9843;48.882;12.592;2023-09-19T01:17:09;9.03;;;5.73;;
19414;SDS011;9843;48.882;12.592;2023-09-19T01:22:26;6.17;;;3.83;;
19414;SDS011;9843;48.882;12.592;2023-09-19T01:27:58;8.33;;;5.37;;
19414;SDS011;9843;48.882;12.592;2023-09-19T01:30:35;7.40;;;3.63;;
19414;SDS011;9843;48.882;12.592;2023-09-19T01:33:03;7.47;;;4.10;;
19414;SDS011;9843;48.882;12.592;2023-09-19T01:35:31;6.30;;;4.83;;
19414;SDS011;9843;48.882;12.592;2023-09-19T01:37:59;5.93;;;4.33;;
19414;SDS011;9843;48.882;12.592;2023-09-19T01:40:26;8.97;;;4.23;;
19414;SDS011;9843;48.882;12.592;2023-09-19T01:42:54;6.30;;;3.97;;
19414;SDS011;9843;48.882;12.592;2023-09-19T01:45:31;4.73;;;4.30;;
19414;SDS011;9843;48.882;12.592;2023-09-19T01:48:03;5.43;;;4.33;;
19414;SDS011;9843;48.882;12.592;2023-09-19T01:50:33;7.83;;;4.50;;
19414;SDS011;9843;48.882;12.592;2023-09-19T01:53:07;6.43;;;4.20;;
19414;SDS011;9843;48.882;12.592;2023-09-19T01:55:37;5.13;;;4.13;;
19414;SDS011;9843;48.882;12.592;2023-09-19T01:58:12;8.90;;;4.93;;
19414;SDS011;9843;48.882;12.592;2023-09-19T02:00:41;5.53;;;5.03;;
19414;SDS011;9843;48.882;12.592;2023-09-19T02:03:11;5.60;;;4.40;;
19414;SDS011;9843;48.882;12.592;2023-09-19T02:05:38;9.00;;;5.67;;
19414;SDS011;9843;48.882;12.592;2023-09-19T02:08:06;9.63;;;5.47;;
19414;SDS011;9843;48.882;12.592;2023-09-19T02:10:33;6.53;;;5.23;;
19414;SDS011;9843;48.882;12.592;2023-09-19T02:13:00;7.57;;;5.73;;
19414;SDS011;9843;48.882;12.592;2023-09-19T02:15:29;7.20;;;5.63;;
19414;SDS011;9843;48.882;12.592;2023-09-19T02:17:59;13.83;;;6.33;;
19414;SDS011;9843;48.882;12.592;2023-09-19T02:20:29;5.90;;;5.30;;
19414;SDS011;9843;48.882;12.592;2023-09-19T02:22:58;6.40;;;5.77;;
19414;SDS011;9843;48.882;12.592;2023-09-19T02:25:25;6.00;;;5.43;;
19414;SDS011;9843;48.882;12.592;2023-09-19T02:27:52;11.70;;;6.60;;
19414;SDS011;9843;48.882;12.592;2023-09-19T02:30:23;9.20;;;6.23;;
19414;SDS011;9843;48.882;12.592;2023-09-19T02:32:51;6.90;;;5.27;;
19414;SDS011;9843;48.882;12.592;2023-09-19T02:35:18;6.00;;;4.97;;
19414;SDS011;9843;48.882;12.592;2023-09-19T02:37:46;7.43;;;4.77;;
19414;SDS011;9843;48.882;12.592;2023-09-19T02:40:14;13.33;;;5.63;;
19414;SDS011;9843;48.882;12.592;2023-09-19T02:42:44;9.20;;;5.77;;
19414;SDS011;9843;48.882;12.592;2023-09-19T02:45:15;7.23;;;4.83;;
19414;SDS011;9843;48.882;12.592;2023-09-19T02:47:43;5.33;;;4.83;;
19414;SDS011;9843;48.882;12.592;2023-09-19T02:50:11;7.90;;;4.93;;
19414;SDS011;9843;48.882;12.592;2023-09-19T02:52:38;9.50;;;4.83;;
19414;SDS011;9843;48.882;12.592;2023-09-19T02:55:07;5.47;;;4.63;;
19414;SDS011;9843;48.882;12.592;2023-09-19T02:57:35;9.90;;;4.70;;
19414;SDS011;9843;48.882;12.592;2023-09-19T03:00:06;9.77;;;5.57;;
19414;SDS011;9843;48.882;12.592;2023-09-19T03:02:35;5.60;;;4.30;;
19414;SDS011;9843;48.882;12.592;2023-09-19T03:05:03;9.03;;;5.57;;
19414;SDS011;9843;48.882;12.592;2023-09-19T03:07:30;6.50;;;4.90;;
19414;SDS011;9843;48.882;12.592;2023-09-19T03:09:57;4.77;;;3.53;;
19414;SDS011;9843;48.882;12.592;2023-09-19T03:12:26;8.47;;;5.33;;
19414;SDS011;9843;48.882;12.592;2023-09-19T03:14:53;5.83;;;4.23;;
19414;SDS011;9843;48.882;12.592;2023-09-19T03:17:20;10.30;;;6.30;;
19414;SDS011;9843;48.882;12.592;2023-09-19T03:19:47;7.83;;;4.57;;
19414;SDS011;9843;48.882;12.592;2023-09-19T03:22:14;9.03;;;4.90;;
19414;SDS011;9843;48.882;12.592;2023-09-19T03:24:42;7.83;;;4.97;;
19414;SDS011;9843;48.882;12.592;2023-09-19T03:27:09;9.87;;;5.83;;
19414;SDS011;9843;48.882;12.592;2023-09-19T03:29:42;6.80;;;5.03;;
19414;SDS011;9843;48.882;12.592;2023-09-19T03:32:09;13.97;;;5.77;;
19414;SDS011;9843;48.882;12.592;2023-09-19T03:34:36;7.20;;;5.63;;
19414;SDS011;9843;48.882;12.592;2023-09-19T03:37:07;5.73;;;4.70;;
19414;SDS011;9843;48.882;12.592;2023-09-19T03:39:34;9.00;;;4.57;;
19414;SDS011;9843;48.882;12.592;2023-09-19T03:42:01;9.10;;;4.20;;
19414;SDS011;9843;48.882;12.592;2023-09-19T03:44:29;5.23;;;4.70;;
19414;SDS011;9843;48.882;12.592;2023-09-19T03:46:57;5.87;;;4.43;;
19414;SDS011;9843;48.882;12.592;2023-09-19T03:49:25;6.77;;;5.33;;
19414;SDS011;9843;48.882;12.592;2023-09-19T03:51:52;6.33;;;4.77;;
19414;SDS011;9843;48.882;12.592;2023-09-19T03:54:19;4.43;;;4.03;;
19414;SDS011;9843;48.882;12.592;2023-09-19T03:56:46;9.00;;;5.83;;
19414;SDS011;9843;48.882;12.592;2023-09-19T03:59:13;18.43;;;6.47;;
19414;SDS011;9843;48.882;12.592;2023-09-19T04:01:41;6.27;;;5.67;;
19414;SDS011;9843;48.882;12.592;2023-09-19T04:04:09;7.10;;;4.10;;
19414;SDS011;9843;48.882;12.592;2023-09-19T04:06:38;10.43;;;5.17;;
19414;SDS011;9843;48.882;12.592;2023-09-19T04:09:05;7.80;;;4.33;;
19414;SDS011;9843;48.882;12.592;2023-09-19T04:11:33;7.00;;;4.07;;
19414;SDS011;9843;48.882;12.592;2023-09-19T04:14:02;8.63;;;6.40;;
19414;SDS011;9843;48.882;12.592;2023-09-19T04:16:30;5.27;;;4.77;;
19414;SDS011;9843;48.882;12.592;2023-09-19T04:18:57;5.70;;;4.37;;
19414;SDS011;9843;48.882;12.592;2023-09-19T04:21:25;5.77;;;4.43;;
19414;SDS011;9843;48.882;12.592;2023-09-19T04:23:53;6.57;;;4.60;;
19414;SDS011;9843;48.882;12.592;2023-09-19T04:26:20;5.10;;;4.23;;
19414;SDS011;9843;48.882;12.592;2023-09-19T04:28:47;7.00;;;6.03;;
19414;SDS011;9843;48.882;12.592;2023-09-19T04:31:14;9.60;;;5.40;;
19414;SDS011;9843;48.882;12.592;2023-09-19T04:33:43;6.50;;;4.00;;
19414;SDS011;9843;48.882;12.592;2023-09-19T04:36:10;5.33;;;4.83;;
19414;SDS011;9843;48.882;12.592;2023-09-19T04:38:39;6.73;;;5.77;;
19414;SDS011;9843;48.882;12.592;2023-09-19T04:41:06;6.20;;;4.40;;
19414;SDS011;9843;48.882;12.592;2023-09-19T04:43:33;10.37;;;4.73;;
19414;SDS011;9843;48.882;12.592;2023-09-19T04:46:00;7.37;;;4.47;;
19414;SDS011;9843;48.882;12.592;2023-09-19T04:48:28;9.57;;;5.03;;
19414;SDS011;9843;48.882;12.592;2023-09-19T04:50:55;5.27;;;4.00;;
19414;SDS011;9843;48.882;12.592;2023-09-19T04:53:22;12.50;;;5.20;;
19414;SDS011;9843;48.882;12.592;2023-09-19T04:55:53;9.27;;;5.60;;
19414;SDS011;9843;48.882;12.592;2023-09-19T04:58:26;6.83;;;4.17;;
19414;SDS011;9843;48.882;12.592;2023-09-19T05:00:53;10.83;;;4.27;;
19414;SDS011;9843;48.882;12.592;2023-09-19T05:03:21;5.70;;;4.10;;
19414;SDS011;9843;48.882;12.592;2023-09-19T05:05:48;9.00;;;4.03;;
19414;SDS011;9843;48.882;12.592;2023-09-19T05:08:15;5.87;;;4.57;;
19414;SDS011;9843;48.882;12.592;2023-09-19T05:10:42;5.83;;;5.33;;
19414;SDS011;9843;48.882;12.592;2023-09-19T05:13:11;5.30;;;3.17;;
19414;SDS011;9843;48.882;12.592;2023-09-19T05:15:38;6.27;;;4.13;;
19414;SDS011;9843;48.882;12.592;2023-09-19T05:18:05;5.97;;;5.37;;
19414;SDS011;9843;48.882;12.592;2023-09-19T05:20:33;7.47;;;3.80;;
19414;SDS011;9843;48.882;12.592;2023-09-19T05:23:03;6.53;;;3.70;;
19414;SDS011;9843;48.882;12.592;2023-09-19T05:25:33;4.10;;;3.67;;
19414;SDS011;9843;48.882;12.592;2023-09-19T05:28:02;3.80;;;3.07;;
19414;SDS011;9843;48.882;12.592;2023-09-19T05:30:32;3.30;;;3.00;;
19414;SDS011;9843;48.882;12.592;2023-09-19T05:33:01;10.90;;;3.40;;
19414;SDS011;9843;48.882;12.592;2023-09-19T05:35:30;4.03;;;2.40;;
19414;SDS011;9843;48.882;12.592;2023-09-19T05:37:57;5.20;;;2.23;;
19414;SDS011;9843;48.882;12.592;2023-09-19T05:40:25;3.57;;;2.73;;
19414;SDS011;9843;48.882;12.592;2023-09-19T05:42:52;4.47;;;2.57;;
19414;SDS011;9843;48.882;12.592;2023-09-19T05:45:19;2.57;;;2.37;;
19414;SDS011;9843;48.882;12.592;2023-09-19T05:47:49;1.87;;;1.73;;
19414;SDS011;9843;48.882;12.592;2023-09-19T05:50:16;6.03;;;2.60;;
19414;SDS011;9843;48.882;12.592;2023-09-19T05:52:47;2.37;;;1.90;;
19414;SDS011;9843;48.882;12.592;2023-09-19T05:55:18;1.90;;;1.80;;
19414;SDS011;9843;48.882;12.592;2023-09-19T05:57:49;2.00;;;1.80;;
19414;SDS011;9843;48.882;12.592;2023-09-19T06:00:17;2.17;;;2.00;;
19414;SDS011;9843;48.882;12.592;2023-09-19T06:02:50;1.80;;;1.70;;
19414;SDS011;9843;48.882;12.592;2023-09-19T06:05:17;2.73;;;2.50;;
19414;SDS011;9843;48.882;12.592;2023-09-19T06:07:44;3.37;;;1.80;;
19414;SDS011;9843;48.882;12.592;2023-09-19T06:10:12;3.23;;;1.80;;
19414;SDS011;9843;48.882;12.592;2023-09-19T06:12:39;3.97;;;2.10;;
19414;SDS011;9843;48.882;12.592;2023-09-19T06:15:08;1.67;;;1.57;;
19414;SDS011;9843;48.882;12.592;2023-09-19T06:17:40;2.43;;;2.23;;
19414;SDS011;9843;48.882;12.592;2023-09-19T06:20:08;5.63;;;2.33;;
19414;SDS011;9843;48.882;12.592;2023-09-19T06:22:39;1.70;;;1.60;;
19414;SDS011;9843;48.882;12.592;2023-09-19T06:25:07;4.27;;;3.50;;
19414;SDS011;9843;48.882;12.592;2023-09-19T06:27:36;1.50;;;1.40;;
19414;SDS011;9843;48.882;12.592;2023-09-19T06:30:04;1.70;;;1.47;;
19414;SDS011;9843;48.882;12.592;2023-09-19T06:32:33;2.10;;;2.00;;
19414;SDS011;9843;48.882;12.592;2023-09-19T06:35:00;3.20;;;1.50;;
19414;SDS011;9843;48.882;12.592;2023-09-19T06:37:29;3.53;;;2.67;;
19414;SDS011;9843;48.882;12.592;2023-09-19T06:39:56;2.07;;;1.57;;
19414;SDS011;9843;48.882;12.592;2023-09-19T06:42:23;1.80;;;1.60;;
19414;SDS011;9843;48.882;12.592;2023-09-19T06:44:50;3.80;;;1.50;;
19414;SDS011;9843;48.882;12.592;2023-09-19T06:47:18;2.83;;;2.10;;
19414;SDS011;9843;48.882;12.592;2023-09-19T06:49:46;1.77;;;1.23;;
19414;SDS011;9843;48.882;12.592;2023-09-19T06:52:13;2.43;;;1.33;;
19414;SDS011;9843;48.882;12.592;2023-09-19T06:54:42;3.17;;;1.37;;
19414;SDS011;9843;48.882;12.592;2023-09-19T06:57:09;3.53;;;1.87;;
19414;SDS011;9843;48.882;12.592;2023-09-19T06:59:36;0.90;;;0.83;;
19414;SDS011;9843;48.882;12.592;2023-09-19T07:02:03;1.50;;;1.20;;
19414;SDS011;9843;48.882;12.592;2023-09-19T07:04:31;4.93;;;2.20;;
19414;SDS011;9843;48.882;12.592;2023-09-19T07:06:59;3.27;;;0.80;;
19414;SDS011;9843;48.882;12.592;2023-09-19T07:09:26;4.13;;;1.50;;
19414;SDS011;9843;48.882;12.592;2023-09-19T07:11:54;6.93;;;1.33;;
19414;SDS011;9843;48.882;12.592;2023-09-19T07:14:21;1.40;;;1.30;;
19414;SDS011;9843;48.882;12.592;2023-09-19T07:16:48;2.73;;;1.70;;
19414;SDS011;9843;48.882;12.592;2023-09-19T07:19:17;3.90;;;1.20;;
19414;SDS011;9843;48.882;12.592;2023-09-19T07:21:44;4.60;;;2.33;;
19414;SDS011;9843;48.882;12.592;2023-09-19T07:24:12;3.83;;;1.40;;
19414;SDS011;9843;48.882;12.592;2023-09-19T07:26:39;3.07;;;1.37;;
19414;SDS011;9843;48.882;12.592;2023-09-19T07:29:08;5.23;;;1.57;;
19414;SDS011;9843;48.882;12.592;2023-09-19T07:31:35;4.33;;;2.23;;
19414;SDS011;9843;48.882;12.592;2023-09-19T07:34:02;2.60;;;1.53;;
19414;SDS011;9843;48.882;12.592;2023-09-19T07:36:32;3.40;;;1.37;;
19414;SDS011;9843;48.882;12.592;2023-09-19T07:39:02;2.20;;;1.83;;
19414;SDS011;9843;48.882;12.592;2023-09-19T07:41:31;1.83;;;1.60;;
19414;SDS011;9843;48.882;12.592;2023-09-19T07:43:59;3.20;;;2.03;;
19414;SDS011;9843;48.882;12.592;2023-09-19T07:46:27;3.03;;;1.63;;
19414;SDS011;9843;48.882;12.592;2023-09-19T07:48:56;3.13;;;1.60;;
19414;SDS011;9843;48.882;12.592;2023-09-19T07:51:23;7.07;;;1.80;;
19414;SDS011;9843;48.882;12.592;2023-09-19T07:53:50;7.87;;;2.20;;
19414;SDS011;9843;48.882;12.592;2023-09-19T07:56:17;3.13;;;2.60;;
19414;SDS011;9843;48.882;12.592;2023-09-19T07:58:46;3.53;;;1.53;;
19414;SDS011;9843;48.882;12.592;2023-09-19T08:01:13;2.53;;;1.50;;
19414;SDS011;9843;48.882;12.592;2023-09-19T08:03:42;2.03;;;1.40;;
19414;SDS011;9843;48.882;12.592;2023-09-19T08:06:10;4.27;;;1.33;;
19414;SDS011;9843;48.882;12.592;2023-09-19T08:08:38;2.40;;;1.30;;
19414;SDS011;9843;48.882;12.592;2023-09-19T08:11:06;2.43;;;1.13;;
19414;SDS011;9843;48.882;12.592;2023-09-19T08:13:37;10.05;;;1.50;;
19414;SDS011;9843;48.882;12.592;2023-09-19T08:16:08;2.22;;;1.02;;
19414;SDS011;9843;48.882;12.592;2023-09-19T08:18:35;2.28;;;1.48;;
19414;SDS011;9843;48.882;12.592;2023-09-19T08:21:04;2.67;;;1.15;;
19414;SDS011;9843;48.882;12.592;2023-09-19T08:23:35;2.78;;;1.25;;
19414;SDS011;9843;48.882;12.592;2023-09-19T08:26:03;5.73;;;1.67;;
19414;SDS011;9843;48.882;12.592;2023-09-19T08:28:32;2.40;;;1.00;;
19414;SDS011;9843;48.882;12.592;2023-09-19T08:31:01;4.23;;;1.40;;
19414;SDS011;9843;48.882;12.592;2023-09-19T08:33:31;5.77;;;1.87;;
19414;SDS011;9843;48.882;12.592;2023-09-19T08:35:58;2.00;;;1.67;;
19414;SDS011;9843;48.882;12.592;2023-09-19T08:38:26;4.47;;;1.57;;
19414;SDS011;9843;48.882;12.592;2023-09-19T08:40:56;2.93;;;1.47;;
19414;SDS011;9843;48.882;12.592;2023-09-19T08:43:24;2.60;;;1.40;;
19414;SDS011;9843;48.882;12.592;2023-09-19T08:45:52;2.40;;;1.83;;
19414;SDS011;9843;48.882;12.592;2023-09-19T08:48:22;3.40;;;1.77;;
19414;SDS011;9843;48.882;12.592;2023-09-19T08:50:51;2.03;;;1.43;;
19414;SDS011;9843;48.882;12.592;2023-09-19T08:53:27;1.83;;;1.30;;
19414;SDS011;9843;48.882;12.592;2023-09-19T08:55:57;4.90;;;2.27;;
19414;SDS011;9843;48.882;12.592;2023-09-19T08:58:30;1.73;;;1.40;;
19414;SDS011;9843;48.882;12.592;2023-09-19T09:00:58;5.23;;;2.00;;
19414;SDS011;9843;48.882;12.592;2023-09-19T09:03:27;1.97;;;1.53;;
19414;SDS011;9843;48.882;12.592;2023-09-19T09:05:59;5.90;;;2.60;;
19414;SDS011;9843;48.882;12.592;2023-09-19T09:08:28;1.05;;;0.90;;
19414;SDS011;9843;48.882;12.592;2023-09-19T09:10:57;2.65;;;1.02;;
19414;SDS011;9843;48.882;12.592;2023-09-19T09:13:25;1.83;;;0.90;;
19414;SDS011;9843;48.882;12.592;2023-09-19T09:15:52;2.75;;;1.27;;
19414;SDS011;9843;48.882;12.592;2023-09-19T09:18:20;2.88;;;1.00;;
19414;SDS011;9843;48.882;12.592;2023-09-19T09:20:48;4.80;;;1.13;;
19414;SDS011;9843;48.882;12.592;2023-09-19T09:23:15;1.70;;;0.70;;
19414;SDS011;9843;48.882;12.592;2023-09-19T09:25:51;1.23;;;0.73;;
19414;SDS011;9843;48.882;12.592;2023-09-19T09:28:22;4.25;;;1.40;;
19414;SDS011;9843;48.882;12.592;2023-09-19T09:30:49;1.80;;;1.25;;
19414;SDS011;9843;48.882;12.592;2023-09-19T09:33:16;2.05;;;1.38;;
19414;SDS011;9843;48.882;12.592;2023-09-19T09:35:47;4.32;;;1.17;;
19414;SDS011;9843;48.882;12.592;2023-09-19T09:38:17;2.87;;;1.57;;
19414;SDS011;9843;48.882;12.592;2023-09-19T09:40:47;3.33;;;1.33;;
19414;SDS011;9843;48.882;12.592;2023-09-19T09:43:27;1.57;;;1.10;;
19414;SDS011;9843;48.882;12.592;2023-09-19T09:46:06;2.20;;;1.40;;
19414;SDS011;9843;48.882;12.592;2023-09-19T09:48:37;1.43;;;1.07;;
19414;SDS011;9843;48.882;12.592;2023-09-19T09:51:04;1.23;;;0.93;;
19414;SDS011;9843;48.882;12.592;2023-09-19T09:53:33;1.83;;;1.60;;
19414;SDS011;9843;48.882;12.592;2023-09-19T09:56:02;3.10;;;1.70;;
19414;SDS011;9843;48.882;12.592;2023-09-19T09:58:32;2.57;;;1.53;;
19414;SDS011;9843;48.882;12.592;2023-09-19T10:01:00;3.40;;;2.70;;
19414;SDS011;9843;48.882;12.592;2023-09-19T10:03:34;2.63;;;1.50;;
19414;SDS011;9843;48.882;12.592;2023-09-19T10:06:06;1.47;;;1.33;;
19414;SDS011;9843;48.882;12.592;2023-09-19T10:08:59;1.80;;;1.30;;
19414;SDS011;9843;48.882;12.592;2023-09-19T10:11:37;1.83;;;1.40;;
19414;SDS011;9843;48.882;12.592;2023-09-19T10:14:06;2.93;;;1.63;;
19414;SDS011;9843;48.882;12.592;2023-09-19T10:16:35;4.03;;;2.20;;
19414;SDS011;9843;48.882;12.592;2023-09-19T10:19:03;1.43;;;1.23;;
19414;SDS011;9843;48.882;12.592;2023-09-19T10:21:32;3.53;;;1.53;;
19414;SDS011;9843;48.882;12.592;2023-09-19T10:24:01;1.73;;;1.30;;
19414;SDS011;9843;48.882;12.592;2023-09-19T10:26:33;2.20;;;2.00;;
19414;SDS011;9843;48.882;12.592;2023-09-19T10:29:01;3.33;;;1.80;;
19414;SDS011;9843;48.882;12.592;2023-09-19T10:31:30;9.63;;;2.80;;
19414;SDS011;9843;48.882;12.592;2023-09-19T10:34:00;2.80;;;1.80;;
19414;SDS011;9843;48.882;12.592;2023-09-19T10:36:31;1.73;;;1.47;;
19414;SDS011;9843;48.882;12.592;2023-09-19T10:39:00;1.43;;;1.30;;
19414;SDS011;9843;48.882;12.592;2023-09-19T10:41:32;1.80;;;1.53;;
19414;SDS011;9843;48.882;12.592;2023-09-19T10:43:59;3.93;;;2.67;;
19414;SDS011;9843;48.882;12.592;2023-09-19T10:46:31;4.70;;;1.50;;
19414;SDS011;9843;48.882;12.592;2023-09-19T10:48:59;3.27;;;1.60;;
19414;SDS011;9843;48.882;12.592;2023-09-19T10:51:27;2.07;;;1.87;;
19414;SDS011;9843;48.882;12.592;2023-09-19T10:53:57;2.90;;;1.97;;
19414;SDS011;9843;48.882;12.592;2023-09-19T10:56:27;2.50;;;1.43;;
19414;SDS011;9843;48.882;12.592;2023-09-19T10:59:05;3.13;;;1.73;;
19414;SDS011;9843;48.882;12.592;2023-09-19T11:01:42;1.90;;;1.63;;
19414;SDS011;9843;48.882;12.592;2023-09-19T11:04:20;1.90;;;1.80;;
19414;SDS011;9843;48.882;12.592;2023-09-19T11:06:58;2.57;;;2.37;;
19414;SDS011;9843;48.882;12.592;2023-09-19T11:09:41;3.13;;;1.50;;
19414;SDS011;9843;48.882;12.592;2023-09-19T11:14:55;2.13;;;1.80;;
19414;SDS011;9843;48.882;12.592;2023-09-19T11:20:20;4.70;;;1.80;;
19414;SDS011;9843;48.882;12.592;2023-09-19T11:23:17;1.83;;;1.40;;
19414;SDS011;9843;48.882;12.592;2023-09-19T11:25:47;1.50;;;1.40;;
19414;SDS011;9843;48.882;12.592;2023-09-19T11:28:27;1.20;;;1.10;;
19414;SDS011;9843;48.882;12.592;2023-09-19T11:30:56;1.20;;;1.10;;
19414;SDS011;9843;48.882;12.592;2023-09-19T11:33:24;2.37;;;2.03;;
19414;SDS011;9843;48.882;12.592;2023-09-19T11:36:01;1.43;;;1.13;;
19414;SDS011;9843;48.882;12.592;2023-09-19T11:46:51;2.53;;;1.13;;
19414;SDS011;9843;48.882;12.592;2023-09-19T11:49:19;3.03;;;1.23;;
19414;SDS011;9843;48.882;12.592;2023-09-19T11:51:50;1.07;;;0.93;;
19414;SDS011;9843;48.882;12.592;2023-09-19T11:54:17;1.43;;;1.20;;
19414;SDS011;9843;48.882;12.592;2023-09-19T11:56:48;1.10;;;1.00;;
19414;SDS011;9843;48.882;12.592;2023-09-19T11:59:19;2.47;;;1.00;;
19414;SDS011;9843;48.882;12.592;2023-09-19T12:01:50;0.87;;;0.87;;
19414;SDS011;9843;48.882;12.592;2023-09-19T12:04:31;2.00;;;1.27;;
19414;SDS011;9843;48.882;12.592;2023-09-19T12:07:02;1.10;;;1.00;;
19414;SDS011;9843;48.882;12.592;2023-09-19T12:09:29;0.80;;;0.80;;
19414;SDS011;9843;48.882;12.592;2023-09-19T12:11:56;1.37;;;1.00;;
19414;SDS011;9843;48.882;12.592;2023-09-19T12:14:23;3.60;;;1.10;;
19414;SDS011;9843;48.882;12.592;2023-09-19T12:16:52;1.37;;;1.23;;
19414;SDS011;9843;48.882;12.592;2023-09-19T12:19:20;2.50;;;1.13;;
19414;SDS011;9843;48.882;12.592;2023-09-19T12:21:54;1.20;;;0.90;;
19414;SDS011;9843;48.882;12.592;2023-09-19T12:24:24;1.53;;;0.90;;
19414;SDS011;9843;48.882;12.592;2023-09-19T12:27:00;1.10;;;1.00;;
19414;SDS011;9843;48.882;12.592;2023-09-19T12:29:29;2.40;;;1.00;;
19414;SDS011;9843;48.882;12.592;2023-09-19T12:31:57;0.90;;;0.90;;
19414;SDS011;9843;48.882;12.592;2023-09-19T12:34:29;1.60;;;0.90;;
19414;SDS011;9843;48.882;12.592;2023-09-19T12:37:09;2.23;;;1.57;;
19414;SDS011;9843;48.882;12.592;2023-09-19T12:39:47;2.70;;;1.13;;
19414;SDS011;9843;48.882;12.592;2023-09-19T12:42:16;1.60;;;1.50;;
19414;SDS011;9843;48.882;12.592;2023-09-19T12:44:44;0.90;;;0.77;;
19414;SDS011;9843;48.882;12.592;2023-09-19T12:47:12;1.80;;;1.20;;
19414;SDS011;9843;48.882;12.592;2023-09-19T12:52:31;1.13;;;1.03;;
19414;SDS011;9843;48.882;12.592;2023-09-19T12:55:02;1.37;;;1.20;;
19414;SDS011;9843;48.882;12.592;2023-09-19T12:57:32;5.40;;;1.83;;
19414;SDS011;9843;48.882;12.592;2023-09-19T12:59:59;7.87;;;1.20;;
19414;SDS011;9843;48.882;12.592;2023-09-19T13:02:27;1.60;;;1.10;;
19414;SDS011;9843;48.882;12.592;2023-09-19T13:04:54;2.70;;;0.90;;
19414;SDS011;9843;48.882;12.592;2023-09-19T13:07:39;3.95;;;0.82;;
19414;SDS011;9843;48.882;12.592;2023-09-19T13:10:10;1.83;;;0.77;;
19414;SDS011;9843;48.882;12.592;2023-09-19T13:12:40;1.42;;;0.80;;
19414;SDS011;9843;48.882;12.592;2023-09-19T13:15:09;1.90;;;0.93;;
19414;SDS011;9843;48.882;12.592;2023-09-19T13:17:44;1.23;;;0.93;;
19414;SDS011;9843;48.882;12.592;2023-09-19T13:20:22;1.05;;;0.80;;
19414;SDS011;9843;48.882;12.592;2023-09-19T13:22:52;0.77;;;0.70;;
19414;SDS011;9843;48.882;12.592;2023-09-19T13:25:25;1.13;;;0.68;;
19414;SDS011;9843;48.882;12.592;2023-09-19T13:27:54;2.53;;;0.98;;
19414;SDS011;9843;48.882;12.592;2023-09-19T13:30:22;1.25;;;0.60;;
19414;SDS011;9843;48.882;12.592;2023-09-19T13:32:50;0.75;;;0.73;;
19414;SDS011;9843;48.882;12.592;2023-09-19T13:35:18;1.02;;;0.82;;
19414;SDS011;9843;48.882;12.592;2023-09-19T13:37:46;0.80;;;0.80;;
19414;SDS011;9843;48.882;12.592;2023-09-19T13:40:16;0.60;;;0.50;;
19414;SDS011;9843;48.882;12.592;2023-09-19T13:42:45;0.75;;;0.75;;
19414;SDS011;9843;48.882;12.592;2023-09-19T13:45:12;0.93;;;0.60;;
19414;SDS011;9843;48.882;12.592;2023-09-19T13:47:42;0.60;;;0.57;;
19414;SDS011;9843;48.882;12.592;2023-09-19T13:50:09;2.58;;;0.93;;
19414;SDS011;9843;48.882;12.592;2023-09-19T13:52:36;1.63;;;0.60;;
19414;SDS011;9843;48.882;12.592;2023-09-19T13:55:04;1.05;;;0.77;;
19414;SDS011;9843;48.882;12.592;2023-09-19T13:57:31;1.98;;;0.88;;
19414;SDS011;9843;48.882;12.592;2023-09-19T14:00:00;0.88;;;0.70;;
19414;SDS011;9843;48.882;12.592;2023-09-19T14:02:27;0.80;;;0.55;;
19414;SDS011;9843;48.882;12.592;2023-09-19T14:04:54;2.72;;;0.50;;
19414;SDS011;9843;48.882;12.592;2023-09-19T14:07:22;1.50;;;0.90;;
19414;SDS011;9843;48.882;12.592;2023-09-19T14:09:50;0.82;;;0.80;;
19414;SDS011;9843;48.882;12.592;2023-09-19T14:12:17;1.90;;;0.80;;
19414;SDS011;9843;48.882;12.592;2023-09-19T14:14:45;0.40;;;0.40;;
19414;SDS011;9843;48.882;12.592;2023-09-19T14:17:13;1.58;;;0.65;;
19414;SDS011;9843;48.882;12.592;2023-09-19T14:19:40;0.70;;;0.70;;
19414;SDS011;9843;48.882;12.592;2023-09-19T14:22:09;2.80;;;1.10;;
19414;SDS011;9843;48.882;12.592;2023-09-19T14:24:36;2.93;;;0.93;;
19414;SDS011;9843;48.882;12.592;2023-09-19T14:27:04;1.73;;;1.13;;
19414;SDS011;9843;48.882;12.592;2023-09-19T14:29:34;1.95;;;1.45;;
19414;SDS011;9843;48.882;12.592;2023-09-19T14:32:01;1.63;;;0.80;;
19414;SDS011;9843;48.882;12.592;2023-09-19T14:34:29;1.60;;;1.33;;
19414;SDS011;9843;48.882;12.592;2023-09-19T14:36:56;1.20;;;1.00;;
19414;SDS011;9843;48.882;12.592;2023-09-19T14:39:23;1.70;;;1.07;;
19414;SDS011;9843;48.882;12.592;2023-09-19T14:41:50;1.60;;;1.00;;
19414;SDS011;9843;48.882;12.592;2023-09-19T14:44:18;2.03;;;1.53;;
19414;SDS011;9843;48.882;12.592;2023-09-19T14:46:45;1.00;;;1.00;;
19414;SDS011;9843;48.882;12.592;2023-09-19T14:49:12;2.40;;;1.00;;
19414;SDS011;9843;48.882;12.592;2023-09-19T14:51:43;1.57;;;1.47;;
19414;SDS011;9843;48.882;12.592;2023-09-19T14:54:12;5.10;;;1.10;;
19414;SDS011;9843;48.882;12.592;2023-09-19T14:56:41;2.60;;;1.00;;
19414;SDS011;9843;48.882;12.592;2023-09-19T14:59:09;1.20;;;1.10;;
19414;SDS011;9843;48.882;12.592;2023-09-19T15:01:37;1.20;;;0.90;;
19414;SDS011;9843;48.882;12.592;2023-09-19T15:04:06;3.73;;;1.00;;
19414;SDS011;9843;48.882;12.592;2023-09-19T15:06:33;1.53;;;1.03;;
19414;SDS011;9843;48.882;12.592;2023-09-19T15:09:02;1.13;;;0.87;;
19414;SDS011;9843;48.882;12.592;2023-09-19T15:11:30;1.30;;;1.13;;
19414;SDS011;9843;48.882;12.592;2023-09-19T15:13:57;1.23;;;0.90;;
19414;SDS011;9843;48.882;12.592;2023-09-19T15:16:24;1.63;;;1.03;;
19414;SDS011;9843;48.882;12.592;2023-09-19T15:18:52;1.57;;;1.03;;
19414;SDS011;9843;48.882;12.592;2023-09-19T15:21:20;3.30;;;1.20;;